createdAt,value
2019-05-30T00:04:08.571Z,0.97
2019-05-30T00:09:13.123Z,0.77
2019-05-30T00:14:19.104Z,0.90
2019-05-30T00:19:23.637Z,1.10
2019-05-30T00:24:29.319Z,1.10
2019-05-30T00:29:33.838Z,0.80
2019-05-30T00:34:39.425Z,1.00
2019-05-30T00:39:44.080Z,1.00
2019-05-30T00:44:49.822Z,1.00
2019-05-30T00:49:54.584Z,1.00
2019-05-30T00:55:00.640Z,0.90
2019-05-30T01:00:06.983Z,0.87
2019-05-30T01:05:13.105Z,0.80
2019-05-30T01:10:18.017Z,0.90
2019-05-30T01:15:24.031Z,0.90
2019-05-30T01:20:28.578Z,0.97
2019-05-30T01:25:34.249Z,0.90
2019-05-30T01:30:38.790Z,0.80
2019-05-30T01:35:43.414Z,1.00
2019-05-30T01:40:47.961Z,0.90
2019-05-30T01:45:53.771Z,0.90
2019-05-30T01:50:58.722Z,1.00
2019-05-30T01:56:04.834Z,0.80
2019-05-30T02:01:22.374Z,1.20
2019-05-30T02:06:17.089Z,0.80
2019-05-30T02:11:21.638Z,1.03
2019-05-30T02:16:27.442Z,0.77
2019-05-30T02:21:31.697Z,0.85
2019-05-30T02:26:37.164Z,0.90
2019-05-30T02:31:41.414Z,1.00
2019-05-30T02:36:47.330Z,0.87
2019-05-30T02:41:51.874Z,0.90
2019-05-30T02:47:01.448Z,1.10
2019-05-30T02:52:07.234Z,0.90
2019-05-30T02:57:13.301Z,1.00
2019-05-30T03:02:18.148Z,0.90
2019-05-30T03:07:23.696Z,1.12
2019-05-30T03:12:28.998Z,1.00
2019-05-30T03:17:34.956Z,1.07
2019-05-30T03:22:39.200Z,0.90
2019-05-30T03:27:44.350Z,0.88
2019-05-30T03:33:05.423Z,0.90
2019-05-30T03:37:54.959Z,0.93
2019-05-30T03:42:59.223Z,1.00
2019-05-30T03:48:06.550Z,0.90
2019-05-30T03:53:12.042Z,0.88
2019-05-30T03:58:21.371Z,0.90
2019-05-30T04:03:34.405Z,0.90
2019-05-30T04:08:39.505Z,1.00
2019-05-30T04:13:44.584Z,0.80
2019-05-30T04:18:49.220Z,1.10
2019-05-30T04:23:54.550Z,1.10
2019-05-30T04:29:00.450Z,0.78
2019-05-30T04:34:04.709Z,1.00
2019-05-30T04:39:11.256Z,0.97
2019-05-30T04:44:17.721Z,1.07
2019-05-30T04:49:22.833Z,1.00
2019-05-30T04:54:27.138Z,1.10
2019-05-30T04:59:31.679Z,0.93
2019-05-30T05:04:36.051Z,0.80
2019-05-30T05:09:40.606Z,1.20
2019-05-30T05:14:45.159Z,1.20
2019-05-30T05:19:49.778Z,1.10
2019-05-30T05:24:54.298Z,1.20
2019-05-30T05:29:58.822Z,1.20
2019-05-30T05:35:03.602Z,1.27
2019-05-30T05:40:10.411Z,1.23
2019-05-30T05:45:16.198Z,1.10
2019-05-30T05:50:20.970Z,1.07
2019-05-30T05:55:25.515Z,1.20
2019-05-30T06:00:31.019Z,1.17
2019-05-30T06:05:50.223Z,1.90
2019-05-30T06:10:43.414Z,1.30
2019-05-30T06:15:47.973Z,1.17
2019-05-30T06:20:53.491Z,1.90
2019-05-30T06:25:59.137Z,1.40
2019-05-30T06:31:03.776Z,1.67
2019-05-30T06:36:08.399Z,2.00
2019-05-30T06:41:12.921Z,2.10
2019-05-30T06:46:18.459Z,1.00
2019-05-30T06:51:23.341Z,1.20
2019-05-30T06:56:28.005Z,1.23
2019-05-30T07:01:32.748Z,1.03
2019-05-30T07:06:37.774Z,2.90
2019-05-30T07:11:42.779Z,2.13
2019-05-30T07:16:47.391Z,1.77
2019-05-30T07:21:52.002Z,1.80
2019-05-30T07:26:57.361Z,1.73
2019-05-30T07:32:01.960Z,1.50
2019-05-30T07:37:07.306Z,1.00
2019-05-30T07:42:12.005Z,1.30
2019-05-30T07:47:16.651Z,1.00
2019-05-30T07:52:21.375Z,0.90
2019-05-30T07:57:28.074Z,1.03
2019-05-30T08:02:33.623Z,1.10
2019-05-30T08:07:39.833Z,0.90
2019-05-30T08:12:44.351Z,0.93
2019-05-30T08:17:50.262Z,0.73
2019-05-30T08:22:54.806Z,0.90
2019-05-30T08:28:00.563Z,0.90
2019-05-30T08:33:05.076Z,0.80
2019-05-30T08:38:09.962Z,0.70
2019-05-30T08:43:14.487Z,0.70
2019-05-30T08:48:20.077Z,0.67
2019-05-30T08:53:28.664Z,0.90
2019-05-30T08:58:34.579Z,0.80
2019-05-30T09:03:40.157Z,0.70
2019-05-30T09:08:46.286Z,1.00
2019-05-30T09:13:51.129Z,0.70
2019-05-30T09:18:56.415Z,0.90
2019-05-30T09:24:01.496Z,0.80
2019-05-30T09:29:07.482Z,0.67
2019-05-30T09:34:12.233Z,0.80
2019-05-30T09:39:17.488Z,0.90
2019-05-30T09:44:22.106Z,0.50
2019-05-30T09:49:28.312Z,0.83
2019-05-30T09:54:32.886Z,0.60
2019-05-30T09:59:38.654Z,0.80
2019-05-30T10:04:44.063Z,0.63
2019-05-30T10:09:50.960Z,0.60
2019-05-30T10:14:57.018Z,0.70
2019-05-30T10:20:02.810Z,0.60
2019-05-30T10:25:07.390Z,0.90
2019-05-30T10:30:13.299Z,0.70
2019-05-30T10:35:17.817Z,0.70
2019-05-30T10:40:24.308Z,0.67
2019-05-30T10:45:28.867Z,0.70
2019-05-30T10:50:34.115Z,0.83
2019-05-30T10:55:38.625Z,0.70
2019-05-30T11:00:53.346Z,0.90
2019-05-30T11:06:23.009Z,0.77
2019-05-30T11:11:28.951Z,0.70
2019-05-30T11:16:33.489Z,0.90
2019-05-30T11:21:41.281Z,0.70
2019-05-30T11:26:45.814Z,1.17
2019-05-30T11:31:52.682Z,1.20
2019-05-30T11:36:57.541Z,1.00
2019-05-30T11:42:02.156Z,0.60
2019-05-30T11:47:06.708Z,1.10
2019-05-30T11:52:11.345Z,0.93
2019-05-30T11:57:15.885Z,0.77
2019-05-30T12:02:21.821Z,1.10
2019-05-30T12:07:35.928Z,1.10
2019-05-30T12:12:34.104Z,1.00
2019-05-30T12:17:38.623Z,0.97
2019-05-30T12:22:44.419Z,0.70
2019-05-30T12:27:49.006Z,0.70
2019-05-30T12:32:56.288Z,0.80
2019-05-30T12:38:04.277Z,0.90
2019-05-30T12:43:08.609Z,1.10
2019-05-30T12:48:13.169Z,0.90
2019-05-30T12:53:18.642Z,1.00
2019-05-30T12:58:23.270Z,1.07
2019-05-30T13:03:29.249Z,1.20
2019-05-30T13:08:34.905Z,1.17
2019-05-30T13:13:40.927Z,1.30
2019-05-30T13:18:45.448Z,0.80
2019-05-30T13:23:51.180Z,1.10
2019-05-30T13:28:56.017Z,1.40
2019-05-30T13:34:02.961Z,1.00
2019-05-30T13:39:07.822Z,1.13
2019-05-30T13:44:13.538Z,1.30
2019-05-30T13:49:18.077Z,1.00
2019-05-30T13:54:22.804Z,1.10
2019-05-30T13:59:27.321Z,1.10
2019-05-30T14:04:33.442Z,1.10
2019-05-30T14:09:38.016Z,1.00
2019-05-30T14:14:45.614Z,1.10
2019-05-30T14:19:50.185Z,1.10
2019-05-30T14:24:56.134Z,0.80
2019-05-30T14:30:00.670Z,1.33
2019-05-30T14:35:06.501Z,1.00
2019-05-30T14:40:13.033Z,0.90
2019-05-30T14:45:17.890Z,1.60
2019-05-30T14:50:22.518Z,0.90
2019-05-30T14:55:27.795Z,1.30
2019-05-30T15:00:32.377Z,1.10
2019-05-30T15:05:37.653Z,0.97
2019-05-30T15:10:42.202Z,0.93
2019-05-30T15:15:46.817Z,0.90
2019-05-30T15:20:51.337Z,1.10
2019-05-30T15:25:56.581Z,1.20
2019-05-30T15:31:01.189Z,1.00
2019-05-30T15:36:06.661Z,0.90
2019-05-30T15:41:13.172Z,1.10
2019-05-30T15:46:18.656Z,1.00
2019-05-30T15:51:23.222Z,0.90
2019-05-30T15:56:28.236Z,0.93
2019-05-30T16:01:32.775Z,1.20
2019-05-30T16:06:37.539Z,1.20
2019-05-30T16:11:42.062Z,1.13
2019-05-30T16:16:46.855Z,1.10
2019-05-30T16:21:51.448Z,1.00
2019-05-30T16:26:56.463Z,0.93
2019-05-30T16:32:01.009Z,1.10
2019-05-30T16:37:05.673Z,1.20
2019-05-30T16:42:10.193Z,0.77
2019-05-30T16:47:16.555Z,1.10
2019-05-30T16:52:23.127Z,1.13
2019-05-30T16:57:27.936Z,0.90
2019-05-30T17:02:32.465Z,0.90
2019-05-30T17:07:37.723Z,1.37
2019-05-30T17:12:42.274Z,1.00
2019-05-30T17:17:47.735Z,1.10
2019-05-30T17:22:52.264Z,1.00
2019-05-30T17:27:57.160Z,0.90
2019-05-30T17:33:01.955Z,0.97
2019-05-30T17:38:08.616Z,0.80
2019-05-30T17:43:13.222Z,0.90
2019-05-30T17:48:19.328Z,0.90
2019-05-30T17:53:24.061Z,1.00
2019-05-30T17:58:30.113Z,1.07
2019-05-30T18:03:34.885Z,1.10
2019-05-30T18:08:39.418Z,0.90
2019-05-30T18:13:43.963Z,0.97
2019-05-30T18:18:48.570Z,1.03
2019-05-30T18:23:53.089Z,0.90
2019-05-30T18:28:57.655Z,1.00
2019-05-30T18:34:02.195Z,1.20
2019-05-30T18:39:07.417Z,1.10
2019-05-30T18:44:11.961Z,1.10
2019-05-30T18:49:16.486Z,0.97
2019-05-30T18:54:21.070Z,1.00
2019-05-30T18:59:26.897Z,1.10
2019-05-30T19:04:31.668Z,1.20
2019-05-30T19:09:37.439Z,1.03
2019-05-30T19:14:42.309Z,1.10
2019-05-30T19:19:46.823Z,0.90
2019-05-30T19:24:51.341Z,0.93
2019-05-30T19:29:55.870Z,1.17
2019-05-30T19:35:00.461Z,1.03
2019-05-30T19:40:05.090Z,0.93
2019-05-30T19:45:09.623Z,1.17
2019-05-30T19:50:14.222Z,1.20
2019-05-30T19:55:21.459Z,1.00
2019-05-30T20:00:25.095Z,1.23
2019-05-30T20:05:30.503Z,1.10
2019-05-30T20:10:35.141Z,1.10
2019-05-30T20:15:42.754Z,1.00
2019-05-30T20:20:57.156Z,0.87
2019-05-30T20:25:55.075Z,1.47
2019-05-30T20:30:59.673Z,1.10
2019-05-30T20:36:04.258Z,1.30
2019-05-30T20:41:08.797Z,1.20
2019-05-30T20:46:22.724Z,1.23
2019-05-30T20:51:21.434Z,1.20
2019-05-30T20:56:25.896Z,1.33
2019-05-30T21:01:30.417Z,1.50
2019-05-30T21:06:36.672Z,1.27
2019-05-30T21:11:42.146Z,1.33
2019-05-30T21:16:49.254Z,1.30
2019-05-30T21:21:53.773Z,1.40
2019-05-30T21:26:59.790Z,1.30
2019-05-30T21:32:04.312Z,1.30
2019-05-30T21:37:09.027Z,1.20
2019-05-30T21:42:14.668Z,1.00
2019-05-30T21:47:19.189Z,1.30
2019-05-30T21:52:23.740Z,1.13
2019-05-30T21:57:30.954Z,1.40
2019-05-30T22:02:35.797Z,1.40
2019-05-30T22:07:40.943Z,1.43
2019-05-30T22:12:45.648Z,1.30
2019-05-30T22:17:50.182Z,1.27
2019-05-30T22:22:56.978Z,1.30
2019-05-30T22:28:01.490Z,1.20
2019-05-30T22:33:06.529Z,1.20
2019-05-30T22:38:11.077Z,1.23
2019-05-30T22:43:24.886Z,1.43
2019-05-30T22:48:22.260Z,1.20
2019-05-30T22:53:27.102Z,1.40
2019-05-30T22:58:31.664Z,1.20
2019-05-30T23:03:36.333Z,1.40
2019-05-30T23:08:40.853Z,1.40
2019-05-30T23:13:46.029Z,1.57
2019-05-30T23:18:50.668Z,1.23
2019-05-30T23:23:55.622Z,1.20
2019-05-30T23:29:01.105Z,1.30
2019-05-30T23:34:06.894Z,1.90
2019-05-30T23:39:11.436Z,1.60
2019-05-30T23:44:16.043Z,1.27
2019-05-30T23:49:20.638Z,1.50
2019-05-30T23:54:26.259Z,1.40
2019-05-30T23:59:30.909Z,1.53
